Flight Track Log - Related Links

Times and Time Zones

All times are in EDT time to prevent confusion due to time zone crossing. See the DAL1716 flight status page for this flight to view local times or setup timezone preferences in your user account.

Time Position Orientation Groundspeed Altitude Reporting Facility
EDT Latitude Longitude Course Direction KTS MPH feet Rate Location/Type
Fri 10:15:54 AM 39.7833 -104.6167 107° East 211 243 8,000  Level Denver TRACON
Fri 10:17:00 AM 39.7159 -104.2307 113° Southeast  Level FlightAware Approximate
Fri 10:17:01 AM 39.7139 -104.5556 146° Southeast 262 302 10,100  Level Denver Center
Fri 10:18:00 AM 39.6735 -104.0839 105° East  Level FlightAware Approximate
Fri 10:18:03 AM 39.6650 -104.4603 124° Southeast 311 358 12,200  Level Denver Center
Fri 10:19:00 AM 39.6294 -103.9380 113° Southeast  Level FlightAware Approximate
Fri 10:19:04 AM 39.6636 -104.3439 91° East 324 373 12,600  Level Denver Center
Fri 10:20:00 AM 39.5855 -103.7919 108° East  Level FlightAware Approximate
Fri 10:20:06 AM 39.6639 -104.2286 90° East 321 369 15,300  Level Denver Center
Fri 10:21:00 AM 39.5428 -103.6464 107° East  Level FlightAware Approximate
Fri 10:21:07 AM 39.6522 -104.1050 97° East 329 379 17,700  Level Denver Center
Fri 10:22:09 AM 39.5850 -104.0069 132° Southeast 366 421 19,000 1,452 Climbing Denver Center
Fri 10:23:11 AM 39.5425 -103.8719 112° Southeast 408 470 20,700 1,500 Climbing Denver Center
Fri 10:24:13 AM 39.5094 -103.7189 106° East 427 491 22,100 1,742 Climbing Denver Center
Fri 10:25:15 AM 39.4689 -103.5419 106° East 453 521 24,300 1,887 Climbing Denver Center
Fri 10:26:17 AM 39.4336 -103.3844 106° East 469 540 26,000 1,548 Climbing Denver Center
Fri 10:27:19 AM 39.3972 -103.2258 106° East 480 552 27,500 1,610 Climbing Denver Center
Fri 10:28:20 AM 39.3533 -103.0358 107° East 490 564 29,300 1,805 Climbing Denver Center
Fri 10:29:22 AM 39.3169 -102.8758 106° East 486 559 31,200 1,742 Climbing Denver Center
Fri 10:30:24 AM 39.2742 -102.6928 107° East 484 557 32,900 1,548 Climbing Denver Center
Fri 10:31:26 AM 39.2375 -102.5353 107° East 480 552 34,400 1,452 Climbing Denver Center
Fri 10:32:28 AM 39.1942 -102.3531 107° East 476 548 35,900 1,210 Climbing Denver Center
Fri 10:33:30 AM 39.1564 -102.1978 107° East 475 547 36,900 532 Climbing Denver Center
Fri 10:34:32 AM 39.1128 -102.0178 107° East 471 542 37,000 48 Climbing Denver Center
Fri 10:35:34 AM 39.0681 -101.8683 111° Southeast 468 539 37,000  Level Denver Center
Fri 10:36:36 AM 39.0106 -101.6914 113° Southeast 479 551 37,000  Level Denver Center
Fri 10:37:38 AM 38.9617 -101.5392 112° Southeast 480 552 37,000  Level Denver Center
Fri 10:38:40 AM 38.9117 -101.3867 113° Southeast 482 555 37,000  Level Denver Center
Fri 10:39:42 AM 38.8542 -101.2094 113° Southeast 482 555 37,000  Level Denver Center
Fri 10:40:44 AM 38.8050 -101.0569 112° Southeast 481 554 37,000  Level Denver Center
Fri 10:41:46 AM 38.7472 -100.8800 113° Southeast 482 555 37,000  Level Denver Center
Fri 10:42:48 AM 38.6975 -100.7294 113° Southeast 480 552 37,000  Level Denver Center
Fri 10:43:50 AM 38.6389 -100.5542 113° Southeast 479 551 37,000  Level Denver Center
Fri 10:44:52 AM 38.5886 -100.4047 113° Southeast 477 549 37,000  Level Denver Center
Fri 10:45:54 AM 38.5286 -100.2303 114° Southeast 478 550 37,000  Level Denver Center
Fri 10:46:57 AM 38.4794 -100.0808 113° Southeast 476 548 37,000  Level Denver Center
Fri 10:47:59 AM 38.4203 -99.9072 113° Southeast 477 549 37,000  Level Denver Center
Fri 10:48:40 AM 38.3853 -99.8064 114° Southeast 477 549 37,000  Level Kansas City Center
Fri 10:49:42 AM 38.3328 -99.6575 114° Southeast 479 551 37,000  Level Kansas City Center
Fri 10:50:44 AM 38.2747 -99.4892 114° Southeast 478 550 37,000  Level Kansas City Center
Fri 10:51:46 AM 38.2222 -99.3350 113° Southeast 477 549 37,000  Level Kansas City Center
Fri 10:52:48 AM 38.1681 -99.1806 114° Southeast 479 551 37,000  Level Kansas City Center
Fri 10:53:50 AM 38.1153 -99.0272 114° Southeast 475 547 37,000  Level Kansas City Center
Fri 10:54:52 AM 38.0600 -98.8706 114° Southeast 473 544 37,000  Level Kansas City Center
Fri 10:55:55 AM 37.9956 -98.6914 114° Southeast 476 548 37,000  Level Kansas City Center
Fri 10:56:57 AM 37.9419 -98.5394 114° Southeast 475 547 37,000  Level Kansas City Center
Fri 10:57:59 AM 37.8886 -98.3856 114° Southeast 479 551 37,000  Level Kansas City Center
Fri 10:59:01 AM 37.8331 -98.2344 115° Southeast 479 551 37,000  Level Kansas City Center
Fri 11:00:03 AM 37.7728 -98.0686 115° Southeast 480 552 37,000  Level Kansas City Center
Fri 11:01:05 AM 37.7158 -97.9150 115° Southeast 481 554 37,000  Level Kansas City Center
Fri 11:02:07 AM 37.6594 -97.7603 115° Southeast 482 555 37,000  Level Kansas City Center
Fri 11:03:09 AM 37.6017 -97.6006 115° Southeast 477 549 37,000  Level Kansas City Center
Fri 11:04:11 AM 37.5464 -97.4506 115° Southeast 474 545 37,000  Level Kansas City Center
Fri 11:05:13 AM 37.4906 -97.2983 115° Southeast 479 551 37,000  Level Kansas City Center
Fri 11:06:15 AM 37.4236 -97.1189 115° Southeast 474 545 37,000  Level Kansas City Center
Fri 11:07:17 AM 37.3675 -96.9678 115° Southeast 475 547 37,000  Level Kansas City Center
Fri 11:08:19 AM 37.3089 -96.8203 117° Southeast 475 547 37,000  Level Kansas City Center
Fri 11:09:21 AM 37.2308 -96.6869 126° Southeast 477 549 37,000  Level Kansas City Center
Fri 11:10:23 AM 37.1528 -96.5544 126° Southeast 475 547 37,000  Level Kansas City Center
Fri 11:11:25 AM 37.0717 -96.4133 126° Southeast 473 544 37,000  Level Kansas City Center
Fri 11:12:27 AM 36.9956 -96.2803 126° Southeast 471 542 37,000  Level Kansas City Center
Fri 11:13:29 AM 36.9203 -96.1464 125° Southeast 470 541 37,000  Level Kansas City Center
Fri 11:14:31 AM 36.8378 -95.9814 122° Southeast 466 536 37,000  Level Kansas City Center
Fri 11:15:33 AM 36.7875 -95.8297 112° Southeast 470 541 37,000  Level Kansas City Center
Fri 11:16:35 AM 36.7447 -95.6711 109° East 476 548 37,000  Level Kansas City Center
Fri 11:17:37 AM 36.7028 -95.5144 108° East 474 545 37,000  Level Kansas City Center
Fri 11:18:39 AM 36.6589 -95.3567 109° East 474 545 37,000  Level Kansas City Center
Fri 11:19:41 AM 36.6150 -95.1986 109° East 475 547 37,000  Level Kansas City Center
Fri 11:20:43 AM 36.5711 -95.0431 109° East 473 544 37,000  Level Kansas City Center
Fri 11:21:46 AM 36.5261 -94.8858 110° East 476 548 37,000  Level Kansas City Center
Fri 11:22:48 AM 36.4825 -94.7319 109° East 472 543 37,000  Level Kansas City Center
Fri 11:23:50 AM 36.4283 -94.5483 110° East 471 542 37,000  Level Kansas City Center
Fri 11:24:52 AM 36.3850 -94.3961 109° East 468 539 37,000  Level Kansas City Center
Fri 11:25:54 AM 36.3414 -94.2436 110° East 468 539 37,000  Level Kansas City Center
Fri 11:26:56 AM 36.2997 -94.0992 110° East 470 541 37,000  Level Kansas City Center
Fri 11:27:58 AM 36.2550 -93.9467 110° East 472 543 37,000  Level Kansas City Center
Fri 11:29:00 AM 36.2025 -93.7636 110° East 472 543 37,000  Level Kansas City Center
Fri 11:30:02 AM 36.1581 -93.6108 110° East 472 543 37,000  Level Kansas City Center
Fri 11:31:04 AM 36.1128 -93.4581 110° East 472 543 37,000  Level Kansas City Center
Fri 11:32:06 AM 36.0678 -93.3058 110° East 471 542 37,000  Level Kansas City Center
Fri 11:33:08 AM 36.0231 -93.1492 109° East 474 545 37,000  Level Memphis Center
Fri 11:34:08 AM 35.9764 -92.9989 111° Southeast 474 545 37,000  Level Memphis Center
Fri 11:35:08 AM 35.9294 -92.8461 111° Southeast 474 545 37,000  Level Memphis Center
Fri 11:36:08 AM 35.8844 -92.6936 110° East 474 545 37,000  Level Memphis Center
Fri 11:37:08 AM 35.8392 -92.5464 111° Southeast 474 545 37,000  Level Memphis Center
Fri 11:38:08 AM 35.7939 -92.3942 110° East 474 545 37,000  Level Memphis Center
Fri 11:39:08 AM 35.7461 -92.2472 112° Southeast 468 539 37,000  Level Memphis Center
Fri 11:40:08 AM 35.7003 -92.0981 111° Southeast 468 539 37,000  Level Memphis Center
Fri 11:41:08 AM 35.6544 -91.9489 111° Southeast 468 539 37,000 350 Level Memphis Center
Fri 11:42:08 AM 35.6061 -91.7997 112° Southeast 468 539 37,700 750 Climbing Memphis Center
Fri 11:43:08 AM 35.5619 -91.6483 110° East 468 539 38,500 650 Climbing Memphis Center
Fri 11:44:08 AM 35.5111 -91.4997 113° Southeast 468 539 39,000 250 Climbing Memphis Center
Fri 11:45:08 AM 35.4644 -91.3539 111° Southeast 462 532 39,000  Level Memphis Center
Fri 11:46:08 AM 35.4156 -91.1875 110° East 467 537 39,000  Level Memphis Center
Fri 11:47:08 AM 35.3664 -91.0547 114° Southeast 472 543 39,000  Level Memphis Center
Fri 11:48:08 AM 35.3211 -90.9017 110° East 472 543 39,000  Level Memphis Center
Fri 11:49:08 AM 35.2739 -90.7539 111° Southeast 472 543 39,000  Level Memphis Center
Fri 11:50:08 AM 35.2219 -90.6011 113° Southeast 472 543 39,000  Level Memphis Center
Fri 11:51:08 AM 35.1700 -90.4383 111° Southeast 467 537 39,000  Level Memphis Center
Fri 11:52:08 AM 35.1219 -90.2911 112° Southeast 473 544 39,000  Level Memphis Center
Fri 11:53:08 AM 35.0719 -90.1414 112° Southeast 473 544 39,000  Level Memphis Center
Fri 11:54:08 AM 35.0236 -89.9919 112° Southeast 473 544 39,000  Level Memphis Center
Fri 11:55:08 AM 35.0042 -89.8322 98° East 468 539 39,000  Level Memphis Center
Fri 11:56:08 AM 34.9783 -89.6831 102° East 486 559 39,000  Level Memphis Center
Fri 11:57:08 AM 34.9522 -89.5158 101° East 497 572 39,000  Level Memphis Center
Fri 11:58:08 AM 34.9261 -89.3592 101° East 484 557 39,000  Level Memphis Center
Fri 11:59:08 AM 34.9017 -89.2000 101° East 484 557 39,000  Level Memphis Center
Fri 12:00:08 PM 34.8728 -89.0231 101° East 484 557 39,000  Level Memphis Center
Fri 12:01:08 PM 34.8503 -88.8617 100° East 484 557 39,000  Level Memphis Center
Fri 12:02:08 PM 34.8231 -88.7000 102° East 479 551 39,000  Level Memphis Center
Fri 12:03:08 PM 34.7978 -88.5414 101° East 484 557 39,000  Level Memphis Center
Fri 12:04:08 PM 34.7769 -88.4078 101° East 472 543 39,000  Level Memphis Center
Fri 12:05:08 PM 34.7514 -88.2492 101° East 472 543 39,000  Level Memphis Center
Fri 12:06:08 PM 34.7211 -88.0628 101° East 491 565 39,000  Level Memphis Center
Fri 12:07:08 PM 34.6950 -87.8969 101° East 491 565 39,000 -550 Level Memphis Center
Fri 12:08:08 PM 34.6667 -87.7386 102° East 485 558 37,900 -1,550 Descending Memphis Center
Fri 12:09:08 PM 34.6489 -87.5928 98° East 485 558 35,900 -1,633 Descending Memphis Center
Fri 12:11:08 PM 34.5908 -87.2761 102° East 487 560 33,000 -967 Descending Atlanta Center
Fri 12:12:08 PM 34.5556 -87.1008 104° East 487 560 33,000  Level Atlanta Center
Fri 12:13:08 PM 34.5261 -86.9383 102° East 487 560 33,000  Level Atlanta Center
Fri 12:14:08 PM 34.4922 -86.7783 104° East 487 560 33,000  Level Atlanta Center
Fri 12:15:08 PM 34.4558 -86.6233 106° East 487 560 33,000  Level Atlanta Center
Fri 12:16:08 PM 34.4194 -86.4636 105° East 487 560 33,000  Level Atlanta Center
Fri 12:17:08 PM 34.3850 -86.3067 105° East 487 560 33,000  Level Atlanta Center
Fri 12:18:08 PM 34.3481 -86.1472 106° East 487 560 33,000 -400 Level Atlanta Center
Fri 12:19:08 PM 34.3111 -85.9878 106° East 487 560 32,200 -2,050 Descending Atlanta Center
Fri 12:20:08 PM 34.2781 -85.8261 104° East 487 560 28,900 -3,200 Descending Atlanta Center
Fri 12:21:08 PM 34.2406 -85.6772 107° East 477 549 25,800 -2,900 Descending Atlanta Center
Fri 12:22:08 PM 34.2047 -85.5233 106° East 477 549 23,100 -2,700 Descending Atlanta Center
Fri 12:23:08 PM 34.1711 -85.3794 106° East 456 525 20,400 -2,450 Descending Atlanta Center
Fri 12:24:08 PM 34.1431 -85.2536 105° East 449 517 18,200 -2,350 Descending Atlanta Center
Fri 12:25:08 PM 34.1089 -85.1150 107° East 430 495 15,700 -2,250 Descending Atlanta Center
Fri 12:26:08 PM 34.0683 -84.9867 111° Southeast 415 478 13,700 -1,800 Descending Atlanta Center
Fri 12:27:08 PM 33.9875 -84.8981 138° Southeast 393 452 12,100 -1,350 Descending Atlanta Center
Fri 12:28:08 PM 33.9150 -84.8047 133° Southeast 383 441 11,000 -550 Descending Atlanta Center
Fri 12:29:08 PM 33.8425 -84.7117 133° Southeast 383 441 11,000  Level Atlanta Center
Fri 12:29:34 PM 33.8000 -84.6667 139° Southeast 378 435 11,000  Level Atlanta TRACON
Fri 12:30:28 PM 33.7500 -84.5833 126° Southeast 340 391 11,000 -316 Level Atlanta TRACON
Fri 12:31:28 PM 33.7333 -84.4833 101° East 282 325 10,400 -1,190 Descending Atlanta TRACON
Fri 12:32:34 PM 33.7333 -84.3833 90° East 263 303 8,500 -1,700 Descending Atlanta TRACON
Fri 12:33:28 PM 33.7333 -84.3167 90° East 238 274 7,000 -1,421 Descending Atlanta TRACON
Fri 12:34:28 PM 33.7333 -84.2333 90° East 232 267 5,800 -950 Descending Atlanta TRACON
Fri 12:35:28 PM 33.7333 -84.1667 90° East 204 235 5,100 -850 Descending Atlanta TRACON
Fri 12:36:28 PM 33.6833 -84.1500 164° South 189 217 4,100 -550 Descending Atlanta TRACON
Fri 12:37:28 PM 33.6667 -84.2000 248° West 175 201 4,000 -300 Descending Atlanta TRACON
Fri 12:38:28 PM 33.6500 -84.2500 248° West 184 212 3,500 -500 Descending Atlanta TRACON

Login

Don't have an account? Register now (free) for customized features, flight alerts, and more!